createdAt,value
2018-12-23T00:02:13.349Z,6.63
2018-12-23T00:04:41.593Z,6.77
2018-12-23T00:07:09.684Z,6.40
2018-12-23T00:09:37.759Z,6.47
2018-12-23T00:12:05.828Z,6.80
2018-12-23T00:14:34.209Z,4.87
2018-12-23T00:17:02.292Z,4.67
2018-12-23T00:19:30.360Z,4.83
2018-12-23T00:21:58.456Z,5.35
2018-12-23T00:24:26.677Z,4.60
2018-12-23T00:26:54.735Z,5.30
2018-12-23T00:29:22.812Z,7.57
2018-12-23T00:31:50.893Z,4.50
2018-12-23T00:34:18.969Z,5.37
2018-12-23T00:36:47.369Z,5.20
2018-12-23T00:39:15.445Z,6.00
2018-12-23T00:41:43.582Z,4.67
2018-12-23T00:44:11.717Z,4.07
2018-12-23T00:46:39.832Z,4.03
2018-12-23T00:49:07.897Z,4.87
2018-12-23T00:51:35.980Z,5.10
2018-12-23T00:54:04.057Z,5.03
2018-12-23T00:56:32.145Z,4.23
2018-12-23T00:59:00.848Z,3.77
2018-12-23T01:01:28.945Z,3.60
2018-12-23T01:03:57.015Z,3.53
2018-12-23T01:06:25.440Z,3.73
2018-12-23T01:11:28.076Z,3.83
2018-12-23T01:13:56.137Z,5.10
2018-12-23T01:16:24.209Z,4.53
2018-12-23T01:18:52.857Z,4.57
2018-12-23T01:21:20.932Z,7.23
2018-12-23T01:23:49.005Z,5.17
2018-12-23T01:26:17.094Z,4.27
2018-12-23T01:28:45.148Z,4.17
2018-12-23T01:31:13.220Z,4.50
2018-12-23T01:33:41.319Z,5.30
2018-12-23T01:38:45.236Z,4.53
2018-12-23T01:41:13.315Z,5.47
2018-12-23T01:43:41.384Z,4.17
2018-12-23T01:46:09.471Z,4.07
2018-12-23T01:48:37.524Z,3.70
2018-12-23T01:51:05.589Z,3.70
2018-12-23T01:53:33.670Z,5.83
2018-12-23T01:56:01.745Z,4.50
2018-12-23T01:58:29.809Z,4.00
2018-12-23T02:00:58.215Z,4.30
2018-12-23T02:03:26.280Z,3.97
2018-12-23T02:05:54.392Z,4.50
2018-12-23T02:08:22.593Z,4.00
2018-12-23T02:10:50.675Z,4.43
2018-12-23T02:13:18.840Z,4.33
2018-12-23T02:15:46.932Z,4.63
2018-12-23T02:18:15.015Z,4.83
2018-12-23T02:20:43.071Z,4.73
2018-12-23T02:23:11.453Z,5.37
2018-12-23T02:25:39.534Z,5.50
2018-12-23T02:28:07.607Z,5.33
2018-12-23T02:30:35.688Z,5.43
2018-12-23T02:33:03.754Z,5.37
2018-12-23T02:35:31.829Z,5.60
2018-12-23T02:37:59.910Z,5.37
2018-12-23T02:40:27.993Z,5.90
2018-12-23T02:42:56.065Z,5.67
2018-12-23T02:45:24.845Z,5.97
2018-12-23T02:47:52.929Z,5.50
2018-12-23T02:50:21.013Z,6.17
2018-12-23T02:52:49.099Z,6.57
2018-12-23T02:55:17.163Z,5.70
2018-12-23T02:57:45.280Z,6.97
2018-12-23T03:00:13.351Z,6.70
2018-12-23T03:02:41.433Z,6.93
2018-12-23T03:05:09.499Z,6.20
2018-12-23T03:07:37.843Z,6.27
2018-12-23T03:10:07.766Z,7.28
2018-12-23T03:12:35.834Z,7.00
2018-12-23T03:15:04.508Z,6.97
2018-12-23T03:17:32.586Z,5.90
2018-12-23T03:20:00.656Z,7.07
2018-12-23T03:22:28.738Z,6.33
2018-12-23T03:24:56.825Z,7.43
2018-12-23T03:27:24.901Z,7.43
2018-12-23T03:29:53.283Z,7.07
2018-12-23T03:32:21.351Z,7.03
2018-12-23T03:34:49.424Z,7.37
2018-12-23T03:37:17.531Z,7.57
2018-12-23T03:39:45.618Z,8.10
2018-12-23T03:42:13.683Z,7.57
2018-12-23T03:44:41.967Z,8.20
2018-12-23T03:47:10.041Z,7.00
2018-12-23T03:49:38.116Z,9.57
2018-12-23T03:52:06.501Z,8.57
2018-12-23T03:54:34.566Z,8.07
2018-12-23T03:57:02.653Z,6.47
2018-12-23T03:59:30.726Z,7.00
2018-12-23T04:01:58.806Z,6.83
2018-12-23T04:04:26.977Z,6.97
2018-12-23T04:06:55.067Z,6.87
2018-12-23T04:09:23.145Z,6.30
2018-12-23T04:11:51.296Z,6.67
2018-12-23T04:14:19.588Z,7.43
2018-12-23T04:16:47.666Z,6.47
2018-12-23T04:19:15.734Z,6.53
2018-12-23T04:21:43.816Z,6.23
2018-12-23T04:24:11.906Z,6.77
2018-12-23T04:26:39.975Z,7.17
2018-12-23T04:29:08.047Z,5.67
2018-12-23T04:31:36.150Z,6.70
2018-12-23T04:34:04.315Z,6.37
2018-12-23T04:36:34.173Z,5.60
2018-12-23T04:39:02.726Z,6.07
2018-12-23T04:41:30.803Z,6.53
2018-12-23T04:43:58.884Z,7.37
2018-12-23T04:46:26.944Z,5.33
2018-12-23T04:48:55.021Z,6.17
2018-12-23T04:51:23.099Z,6.73
2018-12-23T04:53:51.160Z,5.60
2018-12-23T04:56:19.230Z,6.00
2018-12-23T04:58:47.550Z,5.63
2018-12-23T05:01:15.613Z,5.87
2018-12-23T05:03:43.698Z,6.03
2018-12-23T05:06:11.780Z,6.03
2018-12-23T05:08:39.839Z,5.70
2018-12-23T05:11:07.924Z,5.30
2018-12-23T05:13:35.991Z,5.60
2018-12-23T05:16:04.069Z,6.20
2018-12-23T05:18:32.123Z,5.20
2018-12-23T05:21:00.523Z,4.97
2018-12-23T05:23:28.667Z,6.37
2018-12-23T05:25:56.732Z,5.90
2018-12-23T05:28:24.820Z,5.03
2018-12-23T05:30:52.891Z,5.70
2018-12-23T05:33:20.945Z,5.93
2018-12-23T05:35:49.125Z,5.80
2018-12-23T05:38:17.189Z,6.33
2018-12-23T05:40:45.264Z,5.33
2018-12-23T05:43:13.529Z,6.00
2018-12-23T05:45:41.610Z,5.87
2018-12-23T05:48:09.763Z,5.43
2018-12-23T05:50:37.849Z,5.70
2018-12-23T05:53:05.938Z,6.07
2018-12-23T05:55:33.372Z,5.23
2018-12-23T05:58:01.457Z,5.77
2018-12-23T06:00:29.528Z,5.60
2018-12-23T06:02:57.596Z,7.07
2018-12-23T06:05:25.708Z,7.53
2018-12-23T06:07:53.788Z,7.10
2018-12-23T06:10:21.878Z,7.53
2018-12-23T06:12:49.988Z,6.60
2018-12-23T06:15:18.055Z,6.70
2018-12-23T06:17:46.124Z,7.13
2018-12-23T06:20:14.197Z,6.37
2018-12-23T06:22:42.276Z,6.73
2018-12-23T06:25:10.446Z,5.97
2018-12-23T06:27:38.970Z,6.47
2018-12-23T06:30:07.659Z,6.72
2018-12-23T06:32:35.720Z,5.80
2018-12-23T06:35:03.904Z,7.00
2018-12-23T06:37:31.962Z,7.77
2018-12-23T06:40:00.028Z,7.00
2018-12-23T06:42:28.116Z,6.50
2018-12-23T06:44:56.179Z,7.17
2018-12-23T06:47:24.248Z,6.53
2018-12-23T06:49:52.821Z,6.10
2018-12-23T06:52:20.897Z,7.50
2018-12-23T06:54:50.718Z,6.60
2018-12-23T06:57:19.057Z,7.30
2018-12-23T06:59:47.120Z,6.87
2018-12-23T07:02:15.187Z,7.03
2018-12-23T07:04:43.264Z,6.27
2018-12-23T07:07:18.421Z,6.57
2018-12-23T07:09:41.394Z,6.93
2018-12-23T07:12:09.773Z,6.23
2018-12-23T07:14:37.835Z,6.60
2018-12-23T07:17:06.513Z,9.10
2018-12-23T07:19:34.584Z,8.03
2018-12-23T07:22:02.656Z,7.80
2018-12-23T07:24:31.320Z,7.80
2018-12-23T07:26:59.396Z,7.13
2018-12-23T07:29:27.578Z,7.70
2018-12-23T07:31:55.668Z,7.00
2018-12-23T07:34:24.156Z,6.50
2018-12-23T07:36:52.228Z,6.70
2018-12-23T07:39:20.608Z,6.57
2018-12-23T07:41:48.688Z,6.70
2018-12-23T07:44:16.756Z,6.93
2018-12-23T07:46:44.825Z,7.63
2018-12-23T07:49:12.949Z,6.50
2018-12-23T07:51:41.030Z,5.97
2018-12-23T07:54:09.122Z,6.30
2018-12-23T07:56:37.528Z,6.27
2018-12-23T07:59:05.599Z,8.23
2018-12-23T08:01:33.777Z,6.67
2018-12-23T08:04:01.951Z,5.87
2018-12-23T08:06:30.023Z,5.77
2018-12-23T08:08:58.097Z,6.37
2018-12-23T08:11:26.194Z,6.03
2018-12-23T08:13:54.263Z,5.37
2018-12-23T08:16:22.332Z,5.33
2018-12-23T08:18:50.787Z,5.97
2018-12-23T08:21:18.869Z,5.50
2018-12-23T08:23:46.939Z,6.10
2018-12-23T08:26:15.069Z,5.20
2018-12-23T08:28:43.241Z,5.70
2018-12-23T08:31:11.313Z,6.40
2018-12-23T08:33:39.383Z,4.77
2018-12-23T08:36:07.506Z,6.93
2018-12-23T08:38:35.592Z,5.83
2018-12-23T08:41:04.151Z,4.83
2018-12-23T08:43:32.224Z,5.33
2018-12-23T08:46:00.306Z,7.93
2018-12-23T08:48:28.417Z,6.67
2018-12-23T08:50:56.482Z,6.13
2018-12-23T08:53:24.547Z,6.17
2018-12-23T08:55:52.626Z,6.80
2018-12-23T08:58:20.701Z,6.77
2018-12-23T09:00:48.752Z,4.87
2018-12-23T09:03:18.949Z,5.77
2018-12-23T09:05:46.932Z,6.17
2018-12-23T09:08:14.995Z,5.20
2018-12-23T09:10:43.068Z,5.50
2018-12-23T09:13:11.131Z,5.50
2018-12-23T09:15:39.218Z,5.77
2018-12-23T09:18:07.293Z,4.97
2018-12-23T09:20:35.657Z,5.67
2018-12-23T09:23:03.803Z,5.10
2018-12-23T09:25:32.404Z,4.85
2018-12-23T09:28:00.468Z,5.23
2018-12-23T09:30:28.544Z,5.77
2018-12-23T09:32:56.667Z,6.00
2018-12-23T09:35:24.730Z,5.22
2018-12-23T09:38:01.092Z,5.17
2018-12-23T09:40:22.871Z,5.40
2018-12-23T09:42:50.934Z,4.83
2018-12-23T09:45:19.045Z,4.47
2018-12-23T09:47:47.400Z,4.80
2018-12-23T09:50:15.472Z,3.87
2018-12-23T09:52:43.536Z,4.90
2018-12-23T09:55:11.619Z,5.03
2018-12-23T09:57:39.688Z,5.07
2018-12-23T10:00:08.900Z,4.70
2018-12-23T10:02:36.992Z,3.83
2018-12-23T10:05:06.176Z,3.57
2018-12-23T10:07:34.254Z,3.70
2018-12-23T10:10:02.349Z,4.00
2018-12-23T10:12:30.512Z,3.70
2018-12-23T10:14:58.575Z,4.17
2018-12-23T10:17:26.662Z,4.20
2018-12-23T10:19:54.723Z,4.27
2018-12-23T10:22:23.129Z,5.10
2018-12-23T10:24:51.205Z,7.70
2018-12-23T10:27:19.280Z,5.27
2018-12-23T10:29:47.344Z,3.93
2018-12-23T10:32:15.503Z,3.77
2018-12-23T10:34:43.568Z,7.30
2018-12-23T10:37:11.644Z,4.47
2018-12-23T10:39:39.722Z,3.87
2018-12-23T10:42:07.792Z,5.60
2018-12-23T10:44:35.856Z,5.90
2018-12-23T10:47:03.928Z,4.03
2018-12-23T10:49:32.013Z,4.73
2018-12-23T10:52:00.104Z,5.27
2018-12-23T10:54:28.274Z,3.30
2018-12-23T10:56:56.416Z,6.77
2018-12-23T10:59:24.490Z,5.37
2018-12-23T11:01:52.776Z,3.67
2018-12-23T11:04:20.842Z,4.17
2018-12-23T11:06:48.903Z,3.73
2018-12-23T11:09:16.980Z,4.40
2018-12-23T11:11:45.043Z,4.10
2018-12-23T11:14:13.111Z,3.43
2018-12-23T11:16:41.477Z,3.90
2018-12-23T11:19:09.543Z,4.83
2018-12-23T11:21:37.623Z,6.27
2018-12-23T11:24:05.975Z,5.10
2018-12-23T11:26:34.145Z,6.87
2018-12-23T11:29:02.212Z,3.87
2018-12-23T11:31:30.288Z,4.50
2018-12-23T11:33:58.565Z,4.27
2018-12-23T11:36:26.662Z,3.23
2018-12-23T11:38:54.940Z,5.40
2018-12-23T11:41:23.019Z,3.73
2018-12-23T11:43:51.087Z,4.07
2018-12-23T11:46:19.157Z,3.85
2018-12-23T11:48:47.225Z,4.13
2018-12-23T11:51:15.300Z,3.27
2018-12-23T11:53:43.381Z,3.93
2018-12-23T11:56:11.451Z,7.33
2018-12-23T11:58:39.533Z,4.13
2018-12-23T12:01:08.088Z,4.13
2018-12-23T12:03:36.148Z,4.70
2018-12-23T12:06:04.412Z,6.10
2018-12-23T12:08:32.499Z,4.13
2018-12-23T12:11:00.564Z,4.33
2018-12-23T12:13:28.668Z,4.97
2018-12-23T12:15:56.754Z,6.27
2018-12-23T12:18:24.815Z,6.70
2018-12-23T12:20:52.895Z,4.03
2018-12-23T12:23:21.353Z,4.43
2018-12-23T12:25:49.651Z,6.17
2018-12-23T12:28:17.756Z,7.23
2018-12-23T12:30:45.845Z,5.10
2018-12-23T12:33:13.935Z,3.80
2018-12-23T12:35:42.023Z,4.97
2018-12-23T12:38:10.096Z,5.13
2018-12-23T12:40:38.168Z,4.53
2018-12-23T12:43:06.237Z,4.87
2018-12-23T12:45:34.727Z,4.40
2018-12-23T12:48:02.790Z,4.33
2018-12-23T12:50:30.873Z,4.50
2018-12-23T12:52:58.950Z,7.40
2018-12-23T12:55:27.028Z,5.53
2018-12-23T12:57:55.090Z,5.13
2018-12-23T13:00:23.175Z,4.50
2018-12-23T13:02:51.246Z,3.83
2018-12-23T13:05:19.331Z,3.37
2018-12-23T13:07:47.799Z,2.10
2018-12-23T13:10:15.868Z,2.60
2018-12-23T13:12:43.925Z,3.23
2018-12-23T13:15:12.006Z,3.30
2018-12-23T13:17:40.076Z,3.30
2018-12-23T13:20:08.153Z,1.43
2018-12-23T13:22:36.248Z,2.00
2018-12-23T13:25:04.809Z,2.90
2018-12-23T13:27:33.064Z,3.77
2018-12-23T13:30:01.457Z,3.07
2018-12-23T13:32:29.612Z,3.57
2018-12-23T13:34:57.676Z,2.60
2018-12-23T13:37:25.748Z,5.40
2018-12-23T13:39:54.313Z,5.63
2018-12-23T13:42:38.856Z,6.40
2018-12-23T13:45:17.073Z,5.97
2018-12-23T13:47:56.672Z,9.60
2018-12-23T13:54:16.634Z,5.87
2018-12-23T13:57:07.880Z,6.70
2018-12-23T14:00:31.951Z,7.70
2018-12-23T14:03:13.832Z,10.70
2018-12-23T14:05:57.346Z,8.23
2018-12-23T14:08:34.287Z,8.83
2018-12-23T14:11:27.711Z,8.00
2018-12-23T14:13:57.222Z,11.23
2018-12-23T14:16:28.782Z,8.07
2018-12-23T14:18:58.278Z,8.30
2018-12-23T14:21:27.763Z,9.13
2018-12-23T14:23:57.238Z,7.83
2018-12-23T14:26:27.064Z,6.10
2018-12-23T14:28:56.852Z,9.57
2018-12-23T14:31:26.343Z,7.13
2018-12-23T14:33:55.832Z,8.60
2018-12-23T14:36:25.316Z,7.13
2018-12-23T14:38:55.666Z,9.60
2018-12-23T14:41:25.602Z,6.60
2018-12-23T14:43:55.077Z,7.47
2018-12-23T14:46:24.567Z,9.27
2018-12-23T14:48:54.669Z,7.10
2018-12-23T14:51:24.237Z,7.27
2018-12-23T14:53:53.729Z,7.97
2018-12-23T14:56:23.564Z,8.07
2018-12-23T14:58:53.045Z,6.83
2018-12-23T15:01:22.530Z,7.60
2018-12-23T15:03:52.030Z,5.70
2018-12-23T15:06:21.518Z,6.13
2018-12-23T15:08:50.996Z,5.90
2018-12-23T15:11:20.725Z,6.33
2018-12-23T15:13:50.207Z,7.73
2018-12-23T15:16:19.691Z,4.83
2018-12-23T15:18:49.184Z,5.70
2018-12-23T15:21:18.665Z,4.90
2018-12-23T15:23:48.132Z,8.30
2018-12-23T15:26:17.627Z,5.77
2018-12-23T15:28:47.102Z,6.90
2018-12-23T15:31:17.045Z,7.97
2018-12-23T15:33:46.764Z,5.50
2018-12-23T15:36:16.486Z,7.23
2018-12-23T15:38:45.965Z,7.00
2018-12-23T15:41:15.465Z,5.77
2018-12-23T15:43:44.953Z,6.77
2018-12-23T15:46:14.439Z,7.83
2018-12-23T15:48:43.930Z,7.03
2018-12-23T15:51:13.417Z,8.00
2018-12-23T15:53:42.892Z,7.03
2018-12-23T15:56:12.561Z,6.90
2018-12-23T15:58:42.044Z,9.03
2018-12-23T16:01:11.520Z,7.83
2018-12-23T16:03:41.015Z,8.50
2018-12-23T16:06:10.500Z,7.40
2018-12-23T16:08:39.985Z,8.57
2018-12-23T16:11:09.474Z,8.97
2018-12-23T16:13:38.975Z,7.80
2018-12-23T16:16:08.455Z,7.97
2018-12-23T16:18:38.367Z,8.20
2018-12-23T16:21:07.842Z,8.53
2018-12-23T16:23:37.325Z,7.27
2018-12-23T16:26:06.855Z,7.43
2018-12-23T16:28:36.325Z,7.33
2018-12-23T16:31:05.815Z,10.07
2018-12-23T16:33:35.620Z,7.07
2018-12-23T16:36:05.174Z,7.03
2018-12-23T16:38:34.649Z,6.67
2018-12-23T16:41:04.457Z,6.43
2018-12-23T16:43:33.929Z,8.10
2018-12-23T16:46:03.409Z,8.63
2018-12-23T16:48:32.900Z,7.40
2018-12-23T16:51:02.379Z,8.47
2018-12-23T16:53:31.853Z,6.97
2018-12-23T16:56:01.348Z,7.83
2018-12-23T16:58:30.828Z,6.37
2018-12-23T17:01:00.311Z,6.77
2018-12-23T17:03:30.075Z,6.73
2018-12-23T17:05:59.554Z,10.43
2018-12-23T17:08:29.030Z,7.57
2018-12-23T17:10:58.551Z,8.40
2018-12-23T17:13:28.014Z,8.40
2018-12-23T17:15:57.501Z,8.00
2018-12-23T17:18:26.981Z,8.33
2018-12-23T17:20:56.498Z,9.13
2018-12-23T17:23:25.990Z,8.67
2018-12-23T17:25:55.939Z,8.40
2018-12-23T17:28:25.433Z,8.20
2018-12-23T17:30:54.903Z,9.77
2018-12-23T17:33:24.406Z,9.70
2018-12-23T17:35:54.555Z,8.80
2018-12-23T17:38:24.038Z,9.33
2018-12-23T17:40:53.538Z,11.20
2018-12-23T17:43:23.272Z,9.20
2018-12-23T17:45:52.758Z,10.63
2018-12-23T17:48:22.639Z,8.47
2018-12-23T17:50:52.124Z,8.93
2018-12-23T17:53:21.602Z,8.17
2018-12-23T17:55:51.418Z,9.23
2018-12-23T17:58:20.897Z,8.87
2018-12-23T18:00:52.549Z,8.27
2018-12-23T18:03:21.640Z,7.83
2018-12-23T18:05:51.222Z,8.10
2018-12-23T18:08:20.686Z,9.03
2018-12-23T18:10:50.646Z,9.50
2018-12-23T18:13:20.150Z,8.83
2018-12-23T18:15:49.639Z,7.90
2018-12-23T18:18:19.112Z,11.07
2018-12-23T18:20:48.598Z,9.10
2018-12-23T18:23:18.083Z,10.37
2018-12-23T18:25:47.589Z,9.73
2018-12-23T18:28:17.057Z,9.90
2018-12-23T18:30:46.546Z,8.97
2018-12-23T18:33:16.395Z,11.17
2018-12-23T18:35:45.877Z,9.50
2018-12-23T18:38:15.505Z,10.40
2018-12-23T18:40:45.012Z,9.07
2018-12-23T18:43:14.491Z,9.63
2018-12-23T18:45:43.971Z,9.77
2018-12-23T18:48:13.462Z,9.20
2018-12-23T18:50:42.952Z,10.43
2018-12-23T18:53:12.438Z,8.47
2018-12-23T18:55:42.492Z,7.77
2018-12-23T18:58:11.978Z,10.07
2018-12-23T19:00:43.663Z,10.23
2018-12-23T19:03:13.153Z,9.77
2018-12-23T19:05:42.641Z,11.57
2018-12-23T19:08:12.121Z,8.90
2018-12-23T19:10:52.504Z,8.47
2018-12-23T19:14:14.005Z,10.10
2018-12-23T19:17:02.558Z,8.87
2018-12-23T19:19:42.454Z,9.83
2018-12-23T19:22:31.137Z,9.17
2018-12-23T19:25:31.679Z,9.10
2018-12-23T19:28:29.344Z,7.67
2018-12-23T19:31:23.239Z,9.57
2018-12-23T19:34:02.819Z,9.60
2018-12-23T19:37:02.533Z,9.00
2018-12-23T19:39:52.400Z,9.40
2018-12-23T19:42:38.435Z,8.60
2018-12-23T19:45:37.622Z,8.55
2018-12-23T19:48:19.480Z,9.63
2018-12-23T19:51:02.507Z,9.07
2018-12-23T19:54:14.360Z,10.47
2018-12-23T19:57:03.638Z,8.57
2018-12-23T19:59:52.510Z,8.93
2018-12-23T20:02:29.920Z,8.53
2018-12-23T20:05:25.138Z,10.33
2018-12-23T20:08:10.697Z,8.60
2018-12-23T20:11:26.181Z,9.17
2018-12-23T20:14:48.950Z,9.87
2018-12-23T20:17:49.412Z,8.80
2018-12-23T20:20:39.063Z,8.90
2018-12-23T20:23:52.604Z,9.10
2018-12-23T20:26:37.743Z,10.40
2018-12-23T20:29:23.562Z,9.30
2018-12-23T20:32:30.802Z,9.53
2018-12-23T20:35:16.281Z,8.53
2018-12-23T20:38:19.109Z,7.47
2018-12-23T20:41:22.223Z,9.57
2018-12-23T20:44:14.104Z,7.40
2018-12-23T20:46:54.175Z,9.13
2018-12-23T20:49:43.598Z,8.40
2018-12-23T20:52:26.136Z,7.90
2018-12-23T20:55:23.593Z,9.03
2018-12-23T20:58:18.759Z,8.83
2018-12-23T21:01:15.552Z,8.07
2018-12-23T21:04:04.257Z,7.87
2018-12-23T21:07:02.472Z,7.33
2018-12-23T21:09:47.888Z,6.97
2018-12-23T21:12:22.216Z,8.13
2018-12-23T21:15:28.166Z,8.23
2018-12-23T21:18:28.167Z,8.97
2018-12-23T21:21:10.528Z,6.93
2018-12-23T21:24:18.839Z,7.20
2018-12-23T21:27:16.692Z,6.97
2018-12-23T21:30:02.943Z,7.13
2018-12-23T21:33:04.541Z,6.83
2018-12-23T21:35:58.188Z,7.27
2018-12-23T21:39:01.434Z,7.83
2018-12-23T21:41:49.931Z,7.83
2018-12-23T21:44:39.233Z,7.43
2018-12-23T21:47:31.194Z,7.00
2018-12-23T21:50:26.427Z,6.73
2018-12-23T21:53:22.834Z,6.23
2018-12-23T21:56:23.590Z,7.03
2018-12-23T21:59:35.892Z,6.63
2018-12-23T22:02:41.712Z,7.73
2018-12-23T22:05:38.674Z,7.33
2018-12-23T22:08:43.903Z,6.43
2018-12-23T22:11:33.486Z,6.80
2018-12-23T22:14:02.960Z,6.13
2018-12-23T22:16:32.452Z,4.93
2018-12-23T22:19:02.262Z,4.13
2018-12-23T22:21:31.759Z,5.30
2018-12-23T22:24:01.248Z,4.07
2018-12-23T22:26:31.021Z,3.93
2018-12-23T22:29:00.508Z,4.40
2018-12-23T22:31:29.986Z,3.70
2018-12-23T22:33:59.496Z,4.17
2018-12-23T22:36:28.987Z,4.53
2018-12-23T22:38:58.461Z,4.17
2018-12-23T22:41:27.955Z,4.03
2018-12-23T22:43:57.432Z,3.87
2018-12-23T22:46:26.949Z,4.20
2018-12-23T22:48:56.769Z,3.33
2018-12-23T22:51:26.255Z,4.07
2018-12-23T22:53:55.746Z,4.07
2018-12-23T22:56:25.244Z,4.97
2018-12-23T22:58:54.742Z,4.47
2018-12-23T23:01:24.220Z,4.63
2018-12-23T23:03:53.694Z,4.77
2018-12-23T23:06:23.170Z,5.47
2018-12-23T23:08:52.652Z,5.30
2018-12-23T23:11:22.537Z,5.10
2018-12-23T23:13:52.014Z,5.00
2018-12-23T23:16:21.499Z,4.13
2018-12-23T23:18:51.037Z,4.30
2018-12-23T23:21:20.545Z,3.67
2018-12-23T23:23:50.023Z,3.67
2018-12-23T23:26:19.823Z,3.83
2018-12-23T23:28:49.316Z,3.47
2018-12-23T23:31:18.818Z,3.83
2018-12-23T23:33:48.603Z,3.40
2018-12-23T23:36:18.278Z,3.60
2018-12-23T23:38:47.773Z,3.20
2018-12-23T23:41:17.578Z,2.50
2018-12-23T23:43:47.053Z,2.90
2018-12-23T23:46:16.527Z,2.73
2018-12-23T23:48:46.142Z,2.57
2018-12-23T23:51:15.618Z,3.30
2018-12-23T23:53:45.087Z,2.33
2018-12-23T23:56:15.194Z,3.13
2018-12-23T23:58:44.660Z,3.13
